Sloman Herakles — V2FY4 — position and weather

sailwx.info

Track history (hours):
 
Tides and Currents Weather Stations Pressure Air Temp Water Temp Dewpoint Dewpoint Depression Visibility Wind Speed Wind Dir Waves Ship Positions

Sloman Herakles

Last reported at 2016-Jan-17 21:25 UTC. Time now 2016-Feb-13 08:40 UTC.
Position S 34°54' E 021°17'.
Warning: this ship's position is 26 days out of date.

Length 145 m; draft 8.6 m.

Type: Tanker. MMSI: 305851000.

Date/timePositionNaut miles runAvg speedWind from/ knotsBaromVisibWave heightAir tempDewpointWater temp
2016-Jan-17 21:25S 34°54' E 021°17'57012.9
2016-Jan-16 01:08S 30°26' E 031°14'813.7
2016-Jan-16 00:33S 30°19' E 031°19'1212.5
2016-Jan-15 23:34S 30°07' E 031°17'1212.2
2016-Jan-15 22:34S 29°55' E 031°15'1010.2
2016-Jan-15 21:33S 29°52' E 031°04'2 1.7
2016-Jan-15 20:33S 29°53' E 031°02'0 0.0
2016-Jan-15 19:33S 29°53' E 031°02'0 0.0
2016-Jan-15 18:33S 29°53' E 031°02'0 0.0
2016-Jan-15 17:33S 29°53' E 031°02'0 0.0
2016-Jan-15 16:33S 29°53' E 031°02'0 0.0
2016-Jan-15 15:33S 29°53' E 031°02'0 0.0
2016-Jan-15 14:30S 29°53' E 031°02'0 0.0
2016-Jan-15 13:33S 29°53' E 031°02'0 0.0
2016-Jan-15 12:33S 29°53' E 031°02'0 0.0
2016-Jan-15 11:33S 29°53' E 031°02'0 0.3
2016-Jan-15 10:33S 29°53' E 031°02'5 5.5
2016-Jan-15 09:33S 29°49' E 031°06'1 1.0
2016-Jan-15 08:33S 29°48' E 031°07'1 1.3
2016-Jan-15 07:33S 29°48' E 031°09'6 5.6
2016-Jan-15 06:33S 29°43' E 031°13'1 1.0
2016-Jan-15 05:31S 29°42' E 031°13'0 0.0
2016-Jan-15 04:31S 29°42' E 031°13'0 0.0
2016-Jan-15 03:31S 29°42' E 031°13'0 0.0
2016-Jan-15 02:31S 29°42' E 031°13'0 0.0
2016-Jan-15 01:31S 29°42' E 031°13'0 0.0
2016-Jan-15 00:31S 29°42' E 031°13'0 0.0
2016-Jan-14 23:31S 29°42' E 031°13'1 0.8
2016-Jan-14 22:33S 29°43' E 031°13'8 8.5
2016-Jan-14 21:33S 29°51' E 031°16'1111.4
2016-Jan-14 20:33S 29°55' E 031°28'1212.4
2016-Jan-14 19:33S 29°59' E 031°42'  
Track history (hours):
 
Tides and Currents Weather Stations Pressure Air Temp Water Temp Dewpoint Dewpoint Depression Visibility Wind Speed Wind Dir Waves Ship Positions

Sloman Herakles

Last reported at 2016-Jan-17 21:25 UTC. Time now 2016-Feb-13 08:40 UTC.
Position S 34°54' E 021°17'.
Warning: this ship's position is 26 days out of date.

Length 145 m; draft 8.6 m.

Type: Tanker. MMSI: 305851000.

Date/timePositionNaut miles runAvg speedWind from/ knotsBaromVisibWave heightAir tempDewpointWater temp
2016-Jan-17 21:25S 34°54' E 021°17'57012.9
2016-Jan-16 01:08S 30°26' E 031°14'813.7
2016-Jan-16 00:33S 30°19' E 031°19'1212.5
2016-Jan-15 23:34S 30°07' E 031°17'1212.2
2016-Jan-15 22:34S 29°55' E 031°15'1010.2
2016-Jan-15 21:33S 29°52' E 031°04'2 1.7
2016-Jan-15 20:33S 29°53' E 031°02'0 0.0
2016-Jan-15 19:33S 29°53' E 031°02'0 0.0
2016-Jan-15 18:33S 29°53' E 031°02'0 0.0
2016-Jan-15 17:33S 29°53' E 031°02'0 0.0
2016-Jan-15 16:33S 29°53' E 031°02'0 0.0
2016-Jan-15 15:33S 29°53' E 031°02'0 0.0
2016-Jan-15 14:30S 29°53' E 031°02'0 0.0
2016-Jan-15 13:33S 29°53' E 031°02'0 0.0
2016-Jan-15 12:33S 29°53' E 031°02'0 0.0
2016-Jan-15 11:33S 29°53' E 031°02'0 0.3
2016-Jan-15 10:33S 29°53' E 031°02'5 5.5
2016-Jan-15 09:33S 29°49' E 031°06'1 1.0
2016-Jan-15 08:33S 29°48' E 031°07'1 1.3
2016-Jan-15 07:33S 29°48' E 031°09'6 5.6
2016-Jan-15 06:33S 29°43' E 031°13'1 1.0
2016-Jan-15 05:31S 29°42' E 031°13'0 0.0
2016-Jan-15 04:31S 29°42' E 031°13'0 0.0
2016-Jan-15 03:31S 29°42' E 031°13'0 0.0
2016-Jan-15 02:31S 29°42' E 031°13'0 0.0
2016-Jan-15 01:31S 29°42' E 031°13'0 0.0
2016-Jan-15 00:31S 29°42' E 031°13'0 0.0
2016-Jan-14 23:31S 29°42' E 031°13'1 0.8
2016-Jan-14 22:33S 29°43' E 031°13'8 8.5
2016-Jan-14 21:33S 29°51' E 031°16'1111.4
2016-Jan-14 20:33S 29°55' E 031°28'1212.4
2016-Jan-14 19:33S 29°59' E 031°42'  

Dump ship's entire track history